MATER UKLL (LWO)

Остані дані METAR із Аеропорта UKLL (LWO)

L'Viv, Ukraine (UKLL) 49-49N 023-57E 323M
Jun 20, 2021 - 09:00 PM EDT / 2021.06.21 0100 UTC
Wind: Calm:0
Visibility: greater than 7 mile(s):0
Temperature: 59 F (15 C)
Dew Point: 57 F (14 C)
Relative Humidity: 93%
Pressure (altimeter): 29.91 in. Hg (1013 hPa)
ob: UKLL 210100Z 00000MPS CAVOK 15/14 Q1013 R13/CLRD// NOSIG
cycle: 1